createdAt,value
2023-04-04T00:00:17.038Z,1.15
2023-04-04T00:02:43.547Z,1.10
2023-04-04T00:05:10.085Z,1.21
2023-04-04T00:07:36.761Z,1.25
2023-04-04T00:10:03.519Z,1.06
2023-04-04T00:12:30.175Z,1.17
2023-04-04T00:14:57.496Z,1.18
2023-04-04T00:17:24.013Z,1.20
2023-04-04T00:19:50.585Z,1.23
2023-04-04T00:22:18.141Z,1.17
2023-04-04T00:24:44.547Z,1.20
2023-04-04T00:27:11.246Z,1.21
2023-04-04T00:29:37.974Z,1.27
2023-04-04T00:32:04.499Z,1.08
2023-04-04T00:34:31.200Z,1.12
2023-04-04T00:36:58.714Z,1.05
2023-04-04T00:39:26.551Z,0.98
2023-04-04T00:41:53.175Z,0.97
2023-04-04T00:44:19.913Z,0.89
2023-04-04T00:46:46.504Z,0.90
2023-04-04T00:49:12.898Z,0.75
2023-04-04T00:51:39.363Z,0.69
2023-04-04T00:54:06.000Z,0.69
2023-04-04T00:56:33.128Z,0.57
2023-04-04T00:59:00.949Z,0.69
2023-04-04T01:01:27.576Z,0.58
2023-04-04T01:03:54.639Z,0.59
2023-04-04T01:06:21.217Z,0.58
2023-04-04T01:08:49.029Z,0.53
2023-04-04T01:11:16.609Z,0.64
2023-04-04T01:13:44.038Z,0.61
2023-04-04T01:16:10.461Z,0.60
2023-04-04T01:18:38.998Z,0.46
2023-04-04T01:21:12.364Z,0.47
2023-04-04T01:23:56.529Z,0.36
2023-04-04T01:26:23.691Z,0.38
2023-04-04T01:28:50.341Z,0.43
2023-04-04T01:31:22.008Z,0.37
2023-04-04T01:34:03.393Z,0.42
2023-04-04T01:36:36.324Z,0.46
2023-04-04T01:39:15.186Z,0.39
2023-04-04T01:41:42.263Z,0.33
2023-04-04T01:44:10.052Z,0.38
2023-04-04T01:46:37.069Z,0.37
2023-04-04T01:49:03.514Z,0.38
2023-04-04T01:51:31.165Z,0.43
2023-04-04T01:53:57.659Z,0.33
2023-04-04T01:56:24.720Z,0.25
2023-04-04T01:58:52.231Z,0.20
2023-04-04T02:01:18.732Z,0.11
2023-04-04T02:03:45.336Z,0.17
2023-04-04T02:06:11.895Z,0.17
2023-04-04T02:08:38.961Z,0.25
2023-04-04T02:11:05.574Z,0.21
2023-04-04T02:13:32.374Z,0.21
2023-04-04T02:15:58.924Z,0.09
2023-04-04T02:18:25.999Z,0.09
2023-04-04T02:20:57.410Z,0.10
2023-04-04T02:23:23.819Z,0.09
2023-04-04T02:25:51.213Z,0.05
2023-04-04T02:28:17.680Z,0.10
2023-04-04T02:30:44.203Z,0.08
2023-04-04T02:33:10.765Z,0.10
2023-04-04T02:35:37.176Z,0.06
2023-04-04T02:38:03.625Z,-0.05
2023-04-04T02:40:30.352Z,-0.20
2023-04-04T02:42:56.894Z,-0.11
2023-04-04T02:45:23.298Z,-0.21
2023-04-04T02:47:50.704Z,-0.17
2023-04-04T02:50:17.427Z,-0.09
2023-04-04T02:52:43.830Z,-0.07
2023-04-04T02:55:10.623Z,-0.05
2023-04-04T02:57:37.237Z,-0.12
2023-04-04T03:00:04.412Z,-0.19
2023-04-04T03:02:31.238Z,-0.20
2023-04-04T03:04:57.743Z,-0.29
2023-04-04T03:07:24.127Z,-0.25
2023-04-04T03:09:50.901Z,-0.35
2023-04-04T03:12:20.555Z,-0.45
2023-04-04T03:14:47.413Z,-0.58
2023-04-04T03:17:14.949Z,-0.59
2023-04-04T03:19:41.914Z,-0.61
2023-04-04T03:22:08.305Z,-0.57
2023-04-04T03:24:35.725Z,-0.60
2023-04-04T03:27:02.544Z,-0.55
2023-04-04T03:29:29.112Z,-0.62
2023-04-04T03:31:55.745Z,-0.55
2023-04-04T03:34:23.232Z,-0.56
2023-04-04T03:36:49.629Z,-0.98
2023-04-04T03:39:16.066Z,-1.06
2023-04-04T03:41:42.535Z,-0.88
2023-04-04T03:44:08.934Z,-0.92
2023-04-04T03:46:35.967Z,-0.89
2023-04-04T03:49:02.506Z,-0.83
2023-04-04T03:51:29.991Z,-0.86
2023-04-04T03:53:56.529Z,-0.97
2023-04-04T03:56:22.967Z,-0.88
2023-04-04T03:58:49.522Z,-0.96
2023-04-04T04:01:16.071Z,-1.00
2023-04-04T04:03:42.503Z,-1.02
2023-04-04T04:06:08.940Z,-0.90
2023-04-04T04:08:35.350Z,-0.99
2023-04-04T04:11:09.091Z,-1.15
2023-04-04T04:13:38.935Z,-1.20
2023-04-04T04:16:05.774Z,-1.22
2023-04-04T04:18:33.637Z,-1.20
2023-04-04T04:21:02.478Z,-1.17
2023-04-04T04:23:28.945Z,-1.27
2023-04-04T04:25:55.476Z,-1.13
2023-04-04T04:28:24.602Z,-1.17
2023-04-04T04:31:08.236Z,-1.36
2023-04-04T04:33:36.257Z,-1.36
2023-04-04T04:36:04.021Z,-1.47
2023-04-04T04:38:30.953Z,-1.54
2023-04-04T04:40:58.705Z,-1.58
2023-04-04T04:43:25.201Z,-1.51
2023-04-04T04:45:52.713Z,-1.53
2023-04-04T04:48:20.279Z,-1.60
2023-04-04T04:50:48.598Z,-1.71
2023-04-04T04:53:16.029Z,-1.56
2023-04-04T04:55:43.801Z,-1.54
2023-04-04T04:58:11.055Z,-1.66
2023-04-04T05:00:39.414Z,-1.62
2023-04-04T05:03:09.221Z,-1.64
2023-04-04T05:05:36.316Z,-1.60
2023-04-04T05:08:03.423Z,-1.68
2023-04-04T05:10:33.048Z,-1.63
2023-04-04T05:12:59.920Z,-1.51
2023-04-04T05:15:29.180Z,-0.78
2023-04-04T05:17:55.830Z,-0.31
2023-04-04T05:20:23.211Z,0.16
2023-04-04T05:22:51.083Z,0.45
2023-04-04T05:25:18.511Z,0.74
2023-04-04T05:27:51.375Z,0.90
2023-04-04T05:30:17.852Z,0.90
2023-04-04T05:32:46.277Z,1.62
2023-04-04T05:35:13.171Z,1.88
2023-04-04T05:37:40.662Z,2.36
2023-04-04T05:40:08.207Z,3.19
2023-04-04T05:42:34.688Z,3.67
2023-04-04T05:45:03.758Z,4.28
2023-04-04T05:47:30.460Z,4.76
2023-04-04T05:49:57.264Z,4.64
2023-04-04T05:52:23.682Z,5.46
2023-04-04T05:54:51.145Z,6.06
2023-04-04T05:57:17.553Z,6.56
2023-04-04T05:59:44.071Z,7.12
2023-04-04T06:02:10.567Z,6.99
2023-04-04T06:04:36.988Z,7.39
2023-04-04T06:07:03.554Z,7.66
2023-04-04T06:09:30.067Z,7.22
2023-04-04T06:11:56.508Z,6.97
2023-04-04T06:14:22.967Z,7.31
2023-04-04T06:16:49.476Z,6.66
2023-04-04T06:19:16.569Z,6.63
2023-04-04T06:21:43.112Z,7.34
2023-04-04T06:24:09.613Z,7.45
2023-04-04T06:26:36.176Z,7.74
2023-04-04T06:29:02.617Z,7.56
2023-04-04T06:31:29.044Z,7.46
2023-04-04T06:33:55.526Z,7.33
2023-04-04T06:36:21.960Z,7.60
2023-04-04T06:38:48.488Z,7.73
2023-04-04T06:41:14.917Z,7.53
2023-04-04T06:43:41.603Z,7.61
2023-04-04T06:46:08.164Z,8.28
2023-04-04T06:48:34.650Z,6.41
2023-04-04T06:51:01.541Z,5.28
2023-04-04T06:53:28.134Z,4.63
2023-04-04T06:55:54.619Z,6.19
2023-04-04T06:58:21.282Z,6.94
2023-04-04T07:00:47.709Z,5.41
2023-04-04T07:03:14.934Z,4.57
2023-04-04T07:05:41.708Z,4.80
2023-04-04T07:08:08.954Z,6.62
2023-04-04T07:10:35.955Z,5.55
2023-04-04T07:13:03.492Z,6.43
2023-04-04T07:15:29.992Z,6.43
2023-04-04T07:17:56.775Z,7.14
2023-04-04T07:20:23.581Z,7.68
2023-04-04T07:22:50.307Z,6.21
2023-04-04T07:25:16.879Z,5.25
2023-04-04T07:27:43.350Z,4.83
2023-04-04T07:30:10.636Z,4.45
2023-04-04T07:32:38.188Z,4.82
2023-04-04T07:35:06.843Z,5.68
2023-04-04T07:37:33.998Z,5.87
2023-04-04T07:40:00.787Z,5.16
2023-04-04T07:42:27.839Z,4.97
2023-04-04T07:44:54.288Z,4.85
2023-04-04T07:47:22.534Z,5.11
2023-04-04T07:49:48.986Z,5.15
2023-04-04T07:52:15.536Z,4.54
2023-04-04T07:54:42.114Z,4.12
2023-04-04T07:57:09.977Z,4.06
2023-04-04T07:59:37.649Z,3.92
2023-04-04T08:02:04.263Z,3.74
2023-04-04T08:04:30.945Z,3.40
2023-04-04T08:06:57.612Z,3.50
2023-04-04T08:09:24.931Z,3.14
2023-04-04T08:11:52.094Z,3.41
2023-04-04T08:14:18.514Z,3.13
2023-04-04T08:16:44.925Z,3.04
2023-04-04T08:19:11.475Z,3.21
2023-04-04T08:21:38.130Z,3.17
2023-04-04T08:24:05.062Z,3.08
2023-04-04T08:26:32.244Z,3.10
2023-04-04T08:28:58.635Z,3.24
2023-04-04T08:31:25.181Z,3.12
2023-04-04T08:33:52.481Z,3.56
2023-04-04T08:36:19.657Z,3.75
2023-04-04T08:38:46.338Z,3.90
2023-04-04T08:41:13.596Z,3.83
2023-04-04T08:43:41.630Z,4.79
2023-04-04T08:46:10.997Z,4.53
2023-04-04T08:48:41.674Z,4.39
2023-04-04T08:51:10.605Z,4.49
2023-04-04T08:53:37.435Z,4.41
2023-04-04T08:56:04.515Z,3.92
2023-04-04T08:58:31.159Z,3.91
2023-04-04T09:00:57.961Z,3.99
2023-04-04T09:03:26.658Z,3.73
2023-04-04T09:05:56.849Z,3.79
2023-04-04T09:08:26.283Z,3.81
2023-04-04T09:10:53.981Z,3.78
2023-04-04T09:13:20.845Z,3.90
2023-04-04T09:15:50.025Z,3.93
2023-04-04T09:18:18.730Z,3.94
2023-04-04T09:20:46.778Z,4.09
2023-04-04T09:23:15.762Z,4.00
2023-04-04T09:26:03.260Z,4.19
2023-04-04T09:28:31.655Z,4.55
2023-04-04T09:31:00.748Z,4.50
2023-04-04T09:33:27.376Z,4.89
2023-04-04T09:36:05.045Z,5.47
2023-04-04T09:38:32.287Z,5.48
2023-04-04T09:40:59.770Z,5.23
2023-04-04T09:43:26.527Z,4.77
2023-04-04T09:45:54.993Z,4.84
2023-04-04T09:48:31.025Z,4.89
2023-04-04T09:50:58.988Z,5.15
2023-04-04T09:53:25.923Z,5.04
2023-04-04T09:55:54.537Z,4.65
2023-04-04T09:58:28.926Z,4.73
2023-04-04T10:00:58.499Z,4.49
2023-04-04T10:03:25.467Z,4.59
2023-04-04T10:06:07.447Z,4.80
2023-04-04T10:08:35.441Z,4.82
2023-04-04T10:11:10.642Z,4.73
2023-04-04T10:13:41.782Z,4.99
2023-04-04T10:16:10.709Z,5.11
2023-04-04T10:18:37.693Z,5.19
2023-04-04T10:23:37.016Z,4.99
2023-04-04T10:26:03.562Z,4.99
2023-04-04T10:28:30.074Z,5.15
2023-04-04T10:31:17.452Z,4.89
2023-04-04T10:34:02.538Z,4.96
2023-04-04T10:36:35.068Z,4.81
2023-04-04T10:39:15.430Z,5.24
2023-04-04T10:41:42.534Z,5.30
2023-04-04T10:44:29.346Z,5.32
2023-04-04T10:46:58.930Z,5.33
2023-04-04T10:49:25.905Z,5.51
2023-04-04T10:51:56.813Z,5.47
2023-04-04T10:54:25.608Z,5.70
2023-04-04T10:56:52.685Z,5.71
2023-04-04T10:59:19.262Z,5.46
2023-04-04T11:01:50.727Z,5.49
2023-04-04T11:04:22.402Z,5.81
2023-04-04T11:07:10.233Z,5.76
2023-04-04T11:09:56.961Z,5.65
2023-04-04T11:12:31.449Z,5.74
2023-04-04T11:15:00.648Z,5.69
2023-04-04T11:17:48.844Z,5.80
2023-04-04T11:20:17.667Z,5.65
2023-04-04T11:22:45.619Z,5.72
2023-04-04T11:25:30.717Z,5.94
2023-04-04T11:27:58.303Z,5.51
2023-04-04T11:30:28.363Z,5.41
2023-04-04T11:33:07.236Z,5.88
2023-04-04T11:35:39.029Z,6.29
2023-04-04T11:38:13.193Z,6.24
2023-04-04T11:40:41.860Z,5.93
2023-04-04T11:43:09.875Z,5.98
2023-04-04T11:45:37.561Z,5.93
2023-04-04T11:48:06.350Z,5.75
2023-04-04T11:50:40.156Z,5.72
2023-04-04T11:53:11.102Z,5.94
2023-04-04T11:55:48.244Z,6.15
2023-04-04T11:58:17.898Z,6.06
2023-04-04T12:00:45.613Z,5.93
2023-04-04T12:03:12.767Z,6.01
2023-04-04T12:05:41.166Z,5.98
2023-04-04T12:08:09.752Z,5.94
2023-04-04T12:10:39.157Z,6.01
2023-04-04T12:13:07.332Z,5.91
2023-04-04T12:15:35.989Z,5.78
2023-04-04T12:18:06.985Z,5.86
2023-04-04T12:20:33.674Z,5.86
2023-04-04T12:23:00.227Z,5.63
2023-04-04T12:25:29.482Z,5.83
2023-04-04T12:27:56.597Z,6.66
2023-04-04T12:30:23.783Z,6.68
2023-04-04T12:32:51.662Z,7.17
2023-04-04T12:35:18.807Z,7.18
2023-04-04T12:38:02.646Z,7.45
2023-04-04T12:40:30.415Z,6.86
2023-04-04T12:42:57.288Z,6.95
2023-04-04T12:45:26.784Z,6.98
2023-04-04T12:47:57.975Z,6.66
2023-04-04T12:50:27.323Z,6.35
2023-04-04T12:55:49.322Z,6.56
2023-04-04T12:58:21.794Z,6.42
2023-04-04T13:00:53.073Z,6.61
2023-04-04T13:03:22.685Z,6.76
2023-04-04T13:05:49.647Z,6.89
2023-04-04T13:08:17.253Z,6.82
2023-04-04T13:11:05.249Z,7.00
2023-04-04T13:13:35.271Z,6.96
2023-04-04T13:16:02.965Z,6.92
2023-04-04T13:18:38.118Z,6.95
2023-04-04T13:21:07.872Z,6.76
2023-04-04T13:23:36.344Z,6.11
2023-04-04T13:26:04.724Z,6.41
2023-04-04T13:28:31.430Z,6.41
2023-04-04T13:30:58.251Z,6.16
2023-04-04T13:33:24.762Z,6.80
2023-04-04T13:35:51.511Z,6.80
2023-04-04T13:38:18.111Z,6.92
2023-04-04T13:40:44.782Z,6.76
2023-04-04T13:43:13.464Z,6.88
2023-04-04T13:45:40.155Z,7.07
2023-04-04T13:48:06.924Z,6.61
2023-04-04T13:50:39.795Z,7.18
2023-04-04T13:53:06.416Z,7.12
2023-04-04T13:55:32.866Z,7.32
2023-04-04T13:57:59.306Z,7.16
2023-04-04T14:00:25.825Z,7.32
2023-04-04T14:02:54.377Z,6.98
2023-04-04T14:05:22.734Z,7.20
2023-04-04T14:07:49.500Z,7.08
2023-04-04T14:10:17.078Z,7.11
2023-04-04T14:12:43.667Z,7.40
2023-04-04T14:15:11.520Z,7.52
2023-04-04T14:17:38.146Z,7.86
2023-04-04T14:20:05.416Z,7.67
2023-04-04T14:22:33.573Z,7.45
2023-04-04T14:25:00.253Z,7.77
2023-04-04T14:27:26.672Z,7.79
2023-04-04T14:29:53.149Z,7.52
2023-04-04T14:32:19.747Z,7.44
2023-04-04T14:34:46.262Z,7.12
2023-04-04T14:37:12.816Z,7.08
2023-04-04T14:39:39.736Z,7.07
2023-04-04T14:42:06.252Z,7.20
2023-04-04T14:44:33.583Z,6.94
2023-04-04T14:47:00.363Z,6.90
2023-04-04T14:49:27.420Z,6.94
2023-04-04T14:51:53.922Z,6.99
2023-04-04T14:54:20.961Z,6.73
2023-04-04T14:56:47.511Z,6.85
2023-04-04T14:59:14.053Z,6.94
2023-04-04T15:01:40.752Z,7.22
2023-04-04T15:04:07.325Z,7.57
2023-04-04T15:06:38.156Z,7.53
2023-04-04T15:09:06.138Z,7.56
2023-04-04T15:11:32.653Z,7.19
2023-04-04T15:13:59.241Z,7.29
2023-04-04T15:16:25.795Z,7.20
2023-04-04T15:18:52.234Z,7.30
2023-04-04T15:21:18.646Z,7.21
2023-04-04T15:23:45.261Z,7.29
2023-04-04T15:26:11.741Z,7.27
2023-04-04T15:28:38.249Z,7.25
2023-04-04T15:31:04.842Z,7.29
2023-04-04T15:33:31.326Z,7.26
2023-04-04T15:35:58.912Z,7.41
2023-04-04T15:38:25.500Z,7.17
2023-04-04T15:40:52.033Z,6.99
2023-04-04T15:43:18.444Z,6.99
2023-04-04T15:45:46.623Z,6.77
2023-04-04T15:48:13.220Z,6.78
2023-04-04T15:50:40.057Z,6.62
2023-04-04T15:53:07.070Z,6.65
2023-04-04T15:55:33.592Z,6.62
2023-04-04T15:58:00.149Z,6.67
2023-04-04T16:00:29.687Z,6.83
2023-04-04T16:02:59.296Z,6.93
2023-04-04T16:05:27.200Z,6.93
2023-04-04T16:07:54.006Z,6.82
2023-04-04T16:10:20.675Z,6.75
2023-04-04T16:12:47.174Z,6.80
2023-04-04T16:15:13.671Z,6.86
2023-04-04T16:17:40.258Z,6.76
2023-04-04T16:20:07.435Z,6.75
2023-04-04T16:22:33.929Z,6.85
2023-04-04T16:25:00.510Z,6.95
2023-04-04T16:27:27.804Z,6.99
2023-04-04T16:29:54.219Z,7.02
2023-04-04T16:32:20.716Z,6.88
2023-04-04T16:34:47.140Z,6.82
2023-04-04T16:37:18.001Z,6.69
2023-04-04T16:39:46.622Z,6.64
2023-04-04T16:42:13.274Z,6.68
2023-04-04T16:44:39.823Z,6.87
2023-04-04T16:47:06.424Z,6.90
2023-04-04T16:49:32.968Z,6.72
2023-04-04T16:51:59.389Z,6.64
2023-04-04T16:54:26.113Z,6.52
2023-04-04T16:56:52.601Z,6.56
2023-04-04T16:59:19.580Z,6.44
2023-04-04T17:01:49.201Z,6.34
2023-04-04T17:04:16.146Z,6.37
2023-04-04T17:06:42.894Z,6.32
2023-04-04T17:09:09.375Z,6.28
2023-04-04T17:11:35.937Z,6.21
2023-04-04T17:14:02.754Z,6.14
2023-04-04T17:16:29.227Z,6.02
2023-04-04T17:18:55.697Z,5.96
2023-04-04T17:21:22.676Z,5.88
2023-04-04T17:23:49.185Z,5.81
2023-04-04T17:26:15.674Z,5.73
2023-04-04T17:28:42.676Z,5.65
2023-04-04T17:31:09.138Z,5.54
2023-04-04T17:33:35.663Z,5.39
2023-04-04T17:36:02.854Z,5.28
2023-04-04T17:38:30.849Z,5.05
2023-04-04T17:41:00.589Z,5.17
2023-04-04T17:43:27.464Z,5.05
2023-04-04T17:45:53.916Z,4.97
2023-04-04T17:48:20.556Z,4.94
2023-04-04T17:50:47.752Z,4.97
2023-04-04T17:53:14.250Z,4.87
2023-04-04T17:55:40.868Z,4.90
2023-04-04T17:58:07.468Z,4.93
2023-04-04T18:00:34.870Z,4.88
2023-04-04T18:03:02.622Z,4.82
2023-04-04T18:05:29.482Z,4.89
2023-04-04T18:07:56.737Z,4.80
2023-04-04T18:10:23.157Z,4.81
2023-04-04T18:12:49.761Z,4.70
2023-04-04T18:15:17.476Z,4.72
2023-04-04T18:17:43.944Z,4.57
2023-04-04T18:20:16.356Z,4.57
2023-04-04T18:22:48.340Z,4.40
2023-04-04T18:25:17.755Z,4.34
2023-04-04T18:27:44.392Z,4.38
2023-04-04T18:30:11.452Z,4.30
2023-04-04T18:32:38.025Z,4.32
2023-04-04T18:35:04.907Z,4.34
2023-04-04T18:37:31.809Z,4.28
2023-04-04T18:39:58.253Z,4.28
2023-04-04T18:42:26.055Z,4.24
2023-04-04T18:44:53.650Z,4.24
2023-04-04T18:47:21.381Z,4.20
2023-04-04T18:49:48.037Z,4.24
2023-04-04T18:52:14.536Z,4.19
2023-04-04T18:54:41.174Z,4.22
2023-04-04T18:57:07.635Z,4.05
2023-04-04T18:59:34.294Z,4.07
2023-04-04T19:02:01.250Z,4.04
2023-04-04T19:04:29.244Z,3.97
2023-04-04T19:06:55.852Z,3.81
2023-04-04T19:09:22.323Z,3.94
2023-04-04T19:11:53.161Z,3.90
2023-04-04T19:14:19.709Z,3.87
2023-04-04T19:16:48.154Z,3.94
2023-04-04T19:19:15.681Z,3.75
2023-04-04T19:21:42.933Z,3.73
2023-04-04T19:24:09.353Z,3.67
2023-04-04T19:26:35.865Z,3.54
2023-04-04T19:29:02.781Z,3.73
2023-04-04T19:31:32.853Z,3.65
2023-04-04T19:34:01.864Z,3.64
2023-04-04T19:36:28.430Z,3.52
2023-04-04T19:38:54.969Z,3.55
2023-04-04T19:41:37.673Z,3.54
2023-04-04T19:44:06.533Z,3.40
2023-04-04T19:46:33.934Z,3.46
2023-04-04T19:49:05.090Z,3.49
2023-04-04T19:51:53.592Z,3.40
2023-04-04T19:54:32.549Z,3.41
2023-04-04T19:57:06.840Z,3.33
2023-04-04T19:59:45.612Z,3.32
2023-04-04T20:02:32.016Z,3.36
2023-04-04T20:04:58.909Z,3.43
2023-04-04T20:07:25.493Z,3.38
2023-04-04T20:09:55.627Z,3.30
2023-04-04T20:12:26.419Z,3.28
2023-04-04T20:14:58.884Z,3.39
2023-04-04T20:17:25.653Z,3.30
2023-04-04T20:19:52.370Z,3.29
2023-04-04T20:22:19.065Z,3.24
2023-04-04T20:24:47.460Z,3.12
2023-04-04T20:27:23.599Z,3.06
2023-04-04T20:29:56.024Z,3.08
2023-04-04T20:32:22.531Z,3.09
2023-04-04T20:34:50.523Z,2.97
2023-04-04T20:37:26.102Z,3.09
2023-04-04T20:39:54.616Z,3.09
2023-04-04T20:42:30.547Z,3.16
2023-04-04T20:45:12.823Z,2.91
2023-04-04T20:47:51.162Z,2.84
2023-04-04T20:50:17.780Z,2.80
2023-04-04T20:52:47.014Z,2.77
2023-04-04T20:55:13.552Z,2.75
2023-04-04T20:57:40.065Z,2.72
2023-04-04T21:00:29.757Z,2.52
2023-04-04T21:02:58.065Z,2.41
2023-04-04T21:05:34.424Z,2.42
2023-04-04T21:08:02.742Z,2.32
2023-04-04T21:10:29.141Z,2.32
2023-04-04T21:13:00.935Z,2.28
2023-04-04T21:15:30.975Z,2.05
2023-04-04T21:18:02.532Z,2.15
2023-04-04T21:20:47.321Z,2.07
2023-04-04T21:23:29.025Z,1.91
2023-04-04T21:25:58.475Z,1.94
2023-04-04T21:28:43.855Z,1.88
2023-04-04T21:31:18.493Z,1.79
2023-04-04T21:33:53.807Z,1.80
2023-04-04T21:36:27.231Z,1.88
2023-04-04T21:39:15.041Z,1.76
2023-04-04T21:41:43.941Z,1.64
2023-04-04T21:44:11.050Z,1.45
2023-04-04T21:46:40.003Z,1.38
2023-04-04T21:49:08.165Z,1.36
2023-04-04T21:51:34.649Z,1.27
2023-04-04T21:54:01.676Z,1.22
2023-04-04T21:56:31.541Z,1.21
2023-04-04T21:58:59.353Z,1.21
2023-04-04T22:01:26.486Z,1.11
2023-04-04T22:03:53.349Z,1.01
2023-04-04T22:06:25.318Z,1.11
2023-04-04T22:08:52.083Z,1.06
2023-04-04T22:11:21.541Z,1.20
2023-04-04T22:13:51.540Z,1.09
2023-04-04T22:16:19.698Z,1.10
2023-04-04T22:18:51.925Z,0.97
2023-04-04T22:21:25.876Z,1.01
2023-04-04T22:23:53.870Z,0.94
2023-04-04T22:26:28.872Z,0.98
2023-04-04T22:28:56.847Z,0.83
2023-04-04T22:31:23.844Z,0.74
2023-04-04T22:33:50.537Z,0.59
2023-04-04T22:36:17.547Z,0.69
2023-04-04T22:38:44.201Z,0.64
2023-04-04T22:41:10.751Z,0.58
2023-04-04T22:43:38.151Z,0.50
2023-04-04T22:46:04.736Z,0.45
2023-04-04T22:48:31.200Z,0.46
2023-04-04T22:50:58.789Z,0.31
2023-04-04T22:53:25.976Z,0.31
2023-04-04T22:55:53.432Z,0.31
2023-04-04T22:58:21.448Z,0.23
2023-04-04T23:00:48.323Z,0.27
2023-04-04T23:03:14.767Z,0.32
2023-04-04T23:05:41.764Z,0.19
2023-04-04T23:08:09.357Z,0.06
2023-04-04T23:10:36.658Z,0.21
2023-04-04T23:13:03.279Z,0.29
2023-04-04T23:15:29.750Z,0.22
2023-04-04T23:17:56.322Z,0.13
2023-04-04T23:20:24.117Z,0.15
2023-04-04T23:22:51.676Z,0.04
2023-04-04T23:25:18.213Z,0.32
2023-04-04T23:27:44.686Z,0.33
2023-04-04T23:30:11.747Z,0.39
2023-04-04T23:32:38.475Z,0.40
2023-04-04T23:35:05.309Z,0.23
2023-04-04T23:37:31.925Z,0.32
2023-04-04T23:39:58.356Z,0.34
2023-04-04T23:42:24.817Z,0.31
2023-04-04T23:44:51.641Z,0.01
2023-04-04T23:47:18.702Z,0.13
2023-04-04T23:49:45.196Z,0.08
2023-04-04T23:52:11.702Z,-0.12
2023-04-04T23:54:38.223Z,-0.07
2023-04-04T23:57:04.676Z,-0.09
2023-04-04T23:59:31.308Z,0.01
